Flight Track Log - Related Links

Times and Time Zones

All times are in EDT time to prevent confusion due to time zone crossing. See the GJS3710 flight status page for this flight to view local times or setup timezone preferences in your user account.

Time Position Orientation Groundspeed Altitude Reporting Facility
EDT Latitude Longitude Course Direction KTS MPH feet Rate Location/Type
Tue 10:59:20 AM 42.0000 -87.8667 90° East 151 174 1,800  Level Chicago TRACON
Tue 11:00:14 AM 42.0000 -87.8000 90° East 227 261 3,200 2,176 Climbing Chicago TRACON
Tue 11:02:33 AM 41.9892 -87.5839 94° East 287 330 8,800 2,448 Climbing Chicago Center
Tue 11:03:35 AM 41.9794 -87.4697 96° East 304 350 11,400 2,208 Climbing Chicago Center
Tue 11:04:38 AM 41.9694 -87.3481 96° East 322 371 13,400 1,584 Climbing Chicago Center
Tue 11:05:40 AM 41.9572 -87.2106 97° East 363 418 14,700 1,403 Climbing Chicago Center
Tue 11:06:42 AM 41.9453 -87.0597 96° East 400 460 16,300 1,645 Climbing Chicago Center
Tue 11:07:44 AM 41.9475 -86.9017 89° East 420 483 18,100 1,887 Climbing Chicago Center
Tue 11:08:46 AM 41.9461 -86.7094 90° East 430 495 20,200 1,887 Climbing Chicago Center
Tue 11:09:48 AM 41.9344 -86.5447 95° East 441 507 22,000 1,742 Climbing Chicago Center
Tue 11:10:50 AM 41.9242 -86.3800 95° East 445 512 23,800 1,500 Climbing Chicago Center
Tue 11:11:52 AM 41.9131 -86.2239 95° East 447 514 25,100 1,210 Climbing Chicago Center
Tue 11:12:54 AM 41.8983 -86.0161 95° East 466 536 26,300 1,065 Climbing Chicago Center
Tue 11:13:56 AM 41.8856 -85.8339 95° East 488 562 27,300 968 Climbing Chicago Center
Tue 11:14:58 AM 41.8731 -85.6514 95° East 495 570 28,300 968 Climbing Chicago Center
Tue 11:16:00 AM 41.8594 -85.4642 96° East 505 581 29,300 968 Climbing Chicago Center
Tue 11:17:02 AM 41.8450 -85.2742 96° East 512 589 30,300 968 Climbing Chicago Center
Tue 11:18:04 AM 41.8308 -85.0864 96° East 510 587 31,300 1,113 Climbing Chicago Center
Tue 11:19:06 AM 41.8133 -84.8558 96° East 519 597 32,600 1,161 Climbing Chicago Center
Tue 11:20:08 AM 41.7981 -84.6694 96° East 511 588 33,700 1,056 Climbing Chicago Center
Tue 11:21:11 AM 41.7825 -84.4839 96° East 506 582 34,800 823 Climbing Chicago Center
Tue 11:22:12 AM 41.7536 -84.3006 102° East 507 583 35,400 532 Climbing Chicago Center
Tue 11:23:15 AM 41.7142 -84.1139 106° East 524 603 35,900 528 Climbing Chicago Center
Tue 11:24:17 AM 41.6667 -83.8936 106° East 517 595 36,500 532 Climbing Chicago Center
Tue 11:25:19 AM 41.6278 -83.7047 105° East 529 609 37,000 485 Climbing Chicago Center
Tue 11:26:33 AM 41.5736 -83.4617 107° East 523 602 37,600 493 Climbing Cleveland Center
Tue 11:27:33 AM 41.5322 -83.2711 106° East 523 602 38,100 500 Climbing Cleveland Center
Tue 11:28:33 AM 41.4986 -83.1061 105° East 523 602 38,600 450 Climbing Cleveland Center
Tue 11:29:33 AM 41.4567 -82.9161 106° East 523 602 39,000 200 Climbing Cleveland Center
Tue 11:30:33 AM 41.4106 -82.7150 107° East 518 596 39,000  Level Cleveland Center
Tue 11:31:33 AM 41.3703 -82.5283 106° East 518 596 39,000  Level Cleveland Center
Tue 11:32:33 AM 41.3294 -82.3472 107° East 518 596 39,000  Level Cleveland Center
Tue 11:33:33 AM 41.2881 -82.1667 107° East 518 596 39,000  Level Cleveland Center
Tue 11:34:33 AM 41.2508 -81.9861 105° East 513 590 39,000  Level Cleveland Center
Tue 11:35:33 AM 41.2114 -81.8086 106° East 508 585 39,000  Level Cleveland Center
Tue 11:36:33 AM 41.1672 -81.6314 108° East 503 579 39,000  Level Cleveland Center
Tue 11:37:33 AM 41.1228 -81.4514 108° East 503 579 39,000  Level Cleveland Center
Tue 11:38:33 AM 41.0803 -81.2772 108° East 510 587 39,000  Level Cleveland Center
Tue 11:39:33 AM 41.0375 -81.1006 108° East 502 578 39,000  Level Cleveland Center
Tue 11:40:33 AM 41.0006 -80.9242 105° East 502 578 39,000  Level Cleveland Center
Tue 11:41:33 AM 40.9675 -80.7811 107° East 502 578 39,000  Level Cleveland Center
Tue 11:42:33 AM 40.9197 -80.5886 108° East 502 578 39,000  Level Cleveland Center
Tue 11:43:33 AM 40.8758 -80.4100 108° East 502 578 39,000  Level Cleveland Center
Tue 11:44:33 AM 40.8233 -80.2181 110° East 502 578 39,000  Level Cleveland Center
Tue 11:45:33 AM 40.7664 -80.0514 114° Southeast 502 578 39,000  Level Cleveland Center
Tue 11:46:33 AM 40.7133 -79.9011 115° Southeast 502 578 39,000  Level Cleveland Center
Tue 11:47:33 AM 40.6519 -79.7319 116° Southeast 502 578 39,000  Level Cleveland Center
Tue 11:48:33 AM 40.5922 -79.5686 116° Southeast 497 572 39,000  Level Cleveland Center
Tue 11:49:33 AM 40.5550 -79.3889 105° East 497 572 39,000  Level Cleveland Center
Tue 11:50:33 AM 40.5194 -79.1956 104° East 502 578 39,000 -200 Level Cleveland Center
Tue 11:51:33 AM 40.4878 -79.0133 103° East 502 578 38,600 -650 Descending Cleveland Center
Tue 11:52:33 AM 40.4625 -78.8531 102° East 508 585 37,700 -1,900 Descending Cleveland Center
Tue 11:53:33 AM 40.4347 -78.6736 101° East 502 578 34,800 -2,950 Descending Cleveland Center
Tue 11:54:33 AM 40.4128 -78.4942 99° East 502 578 31,800 -3,058 Descending Cleveland Center
Tue 11:56:08 AM 40.3908 -78.1922 95° East 514 592 26,900 -2,649 Descending New York Center
Tue 11:57:07 AM 40.3750 -78.0106 96° East 508 585 25,000 -950 Descending New York Center
Tue 11:58:08 AM 40.3539 -77.8447 99° East 508 585 25,000 -347 Level New York Center
Tue 11:59:08 AM 40.3336 -77.6603 98° East 508 585 24,300 -807 Descending New York Center
Tue 12:00:07 PM 40.3108 -77.4756 99° East 508 585 23,400 -900 Descending New York Center
Tue 12:01:08 PM 40.2897 -77.2939 99° East 508 585 22,500 -942 Descending New York Center
Tue 12:02:08 PM 40.2625 -77.1061 101° East 497 572 21,500 -763 Descending New York Center
Tue 12:03:06 PM 40.2400 -76.9356 100° East 484 557 21,000 -252 Descending New York Center
Tue 12:04:07 PM 40.2178 -76.7622 99° East 479 551 21,000 -590 Level New York Center
Tue 12:05:08 PM 40.1950 -76.5944 100° East 479 551 19,800 -2,033 Descending New York Center
Tue 12:06:08 PM 40.1758 -76.4272 98° East 465 535 16,900 -2,777 Descending New York Center
Tue 12:07:09 PM 40.1539 -76.2758 101° East 449 517 14,200 -2,542 Descending New York Center
Tue 12:08:06 PM 40.1350 -76.1442 101° East 416 479 11,900 -2,051 Descending New York Center
Tue 12:09:06 PM 40.1167 -75.9961 99° East 382 440 10,200 -1,438 Descending New York Center
Tue 12:10:07 PM 40.0550 -75.9264 139° Southeast 319 367 9,000 -1,388 Descending New York Center
Tue 12:11:07 PM 39.9794 -75.8936 162° South 274 315 7,400 -1,438 Descending New York Center
Tue 12:12:08 PM 39.9014 -75.8661 165° South 279 321 6,100 -655 Descending New York Center
Tue 12:13:06 PM 39.8511 -75.8219 146° Southeast 261 300 6,100  Level New York Center
Tue 12:14:08 PM 39.7972 -75.7667 142° Southeast 231 266 6,100 -50 Level New York Center
Tue 12:15:06 PM 39.7794 -75.6925 107° East 224 258 6,000 -504 Descending New York Center
Tue 12:16:07 PM 39.7933 -75.6069 78° East 230 265 5,100 -942 Descending New York Center
Tue 12:17:07 PM 39.8064 -75.5431 75° East 211 243 4,100 -1,059 Descending New York Center
Tue 12:18:06 PM 39.8217 -75.4739 74° East 199 229 3,000 -1,097 Descending New York Center
Tue 12:18:40 PM 39.8333 -75.4333 69° East 192 221 2,400 -947 Descending Philadelphia TRACON
Tue 12:19:41 PM 39.8500 -75.3667 72° East 180 207 1,500 -843 Descending Philadelphia TRACON
Tue 12:20:41 PM 39.8500 -75.3167 90° East 139 160 700 -800 Descending Philadelphia TRACON

Login

Don't have an account? Register now (free) for customized features, flight alerts, and more!